Terminal Aerodrome Forecast
Issued by NWS

Home | Current Version | Previous Version | Text Only | Print | Product List | Glossary Off
Versions: 1 2 3 4 5 6 7 8 9 10 11 12 13 14 15 16

000
FTUS43 KMPX 031136
TAFRWF
TAF
KRWF 031136Z 0312/0412 14008KT 4SM -SN OVC045
     FM031300 15008KT 2SM -SN BR OVC020
     FM031500 29012G20KT 1 1/2SM -SN BR OVC010
     FM031700 32024G34KT 2SM BLSN FEW020 BKN090
     FM040100 31017G25KT P6SM SKC
     FM040700 30012KT P6SM SKC=

USA.gov is the U.S. government's official web portal to all federal, state and local government web resources and services.